D/T METAR WX W/DIR W/SPE G/SPE TEMP DEWP
20/02/20 08:20 EGFF 200820Z AUTO 21014G24KT 9999 BKN017/// OVC023/// //////TCU 10/08 Q1004 SSW (210°) 16.1mph 27.6mph 10°C 8°C
20/02/20 07:20 EGFF 200720Z AUTO 20013KT 9999 OVC018 09/08 Q1005 SSW (200°) 15.0mph 9°C 8°C
20/02/20 06:50 EGFF 200650Z AUTO 21013KT 9999 BKN019 OVC029 09/07 Q1006 SSW (210°) 15.0mph 9°C 7°C
20/02/20 06:20 EGFF 200620Z AUTO 21011KT 9999 BKN018 OVC039 09/07 Q1006 SSW (210°) 12.7mph 9°C 7°C
20/02/20 05:20 EGFF 200520Z AUTO 22013KT 9999 BKN021 BKN025 OVC041 09/07 Q1007 SW (220°) 15.0mph 9°C 7°C
20/02/20 04:50 EGFF 200450Z AUTO 22014KT 9999 BKN022 BKN033 09/07 Q1008 SW (220°) 16.1mph 9°C 7°C
20/02/20 04:20 EGFF 200420Z AUTO 23013KT 9999 BKN021 OVC027 09/07 Q1008 SW (230°) 15.0mph 9°C 7°C
20/02/20 03:50 EGFF 200350Z AUTO 23011KT 9999 BKN018 OVC026 09/07 Q1008 SW (230°) 12.7mph 9°C 7°C
20/02/20 02:50 EGFF 200250Z AUTO 24012KT 9999 -RA BKN017 OVC049 09/08 Q1009 -RA WSW (240°) 13.8mph 9°C 8°C
20/02/20 02:20 EGFF 200220Z AUTO 24013KT 9999 -RA FEW014 OVC018 09/08 Q1010 -RA WSW (240°) 15.0mph 9°C 8°C
20/02/20 01:50 EGFF 200150Z AUTO 24008KT 9999 SCT023/// OVC034/// 08/08 Q1010 WSW (240°) 9.2mph 8°C 8°C
20/02/20 01:20 EGFF 200120Z AUTO 25010KT 9999 -RA FEW008/// BKN012/// OVC024/// 09/08 Q1011 RERA REDZ -RA WSW (250°) 11.5mph 9°C 8°C
20/02/20 00:50 EGFF 200050Z 24009KT 5000 RADZ BKN014 OVC018 09/07 Q1011 RERA RA DZ WSW (240°) 10.4mph 9°C 7°C
19/02/20 23:50 EGFF 192350Z AUTO 24009KT 9999 BKN015 OVC020 09/07 Q1012 WSW (240°) 10.4mph 9°C 7°C
19/02/20 23:20 EGFF 192320Z AUTO 23009KT 9999 BKN016 OVC037 09/07 Q1012 SW (230°) 10.4mph 9°C 7°C
19/02/20 22:50 EGFF 192250Z AUTO 24010KT 9999 BKN015 OVC041 09/07 Q1012 WSW (240°) 11.5mph 9°C 7°C
19/02/20 22:20 EGFF 192220Z AUTO 23008KT 9999 BKN012 OVC034 09/07 Q1013 SW (230°) 9.2mph 9°C 7°C
19/02/20 21:20 EGFF 192120Z AUTO 24011KT 9999 FEW020 SCT024 OVC033 09/07 Q1014 WSW (240°) 12.7mph 9°C 7°C
19/02/20 20:50 EGFF 192050Z AUTO 25014KT 9999 SCT020 BKN027 OVC037 09/07 Q1014 WSW (250°) 16.1mph 9°C 7°C
19/02/20 20:20 EGFF 192020Z 25014KT 9999 -RA FEW014 SCT020 BKN028 09/07 Q1014 RERA REDZ -RA WSW (250°) 16.1mph 9°C 7°C
19/02/20 19:50 EGFF 191950Z AUTO 25015KT 9999 SCT019 BKN033 BKN045 09/07 Q1014 WSW (250°) 17.3mph 9°C 7°C
19/02/20 18:50 EGFF 191850Z AUTO 25012KT 9999 SCT021 BKN039 OVC048 09/07 Q1015 WSW (250°) 13.8mph 9°C 7°C
19/02/20 18:20 EGFF 191820Z AUTO 25013KT 9999 -RA FEW019 BKN023 BKN034 09/07 Q1015 -RA WSW (250°) 15.0mph 9°C 7°C
19/02/20 17:50 EGFF 191750Z AUTO 25014KT 9999 FEW029 BKN036 BKN047 09/07 Q1015 WSW (250°) 16.1mph 9°C 7°C
19/02/20 17:20 EGFF 191720Z AUTO 25015KT 9999 SCT019 BKN037 OVC047 09/07 Q1015 WSW (250°) 17.3mph 9°C 7°C
19/02/20 16:50 EGFF 191650Z AUTO 25014KT 9999 BKN021 BKN047 09/07 Q1016 WSW (250°) 16.1mph 9°C 7°C
19/02/20 16:20 EGFF 191620Z AUTO 25013KT 9999 NCD 09/07 Q1016 WSW (250°) 15.0mph 9°C 7°C
19/02/20 15:50 EGFF 191550Z AUTO 25012KT 9999 SCT017 OVC044 09/07 Q1016 WSW (250°) 13.8mph 9°C 7°C
19/02/20 15:20 EGFF 191520Z AUTO 25013KT 9999 BKN016 BKN023 BKN028 09/08 Q1016 WSW (250°) 15.0mph 9°C 8°C
19/02/20 14:20 EGFF 191420Z AUTO 24010KT 8000 -RA FEW024/// SCT029/// BKN035/// //////TCU 09/07 Q1017 -RA WSW (240°) 11.5mph 9°C 7°C
19/02/20 13:50 EGFF 191350Z AUTO 25012KT 9999 FEW027/// //////TCU 09/07 Q1018 WSW (250°) 13.8mph 9°C 7°C
19/02/20 13:20 EGFF 191320Z AUTO 25012KT 9999 -RA SCT031/// SCT037/// BKN046/// //////TCU 09/08 Q1018 -RA WSW (250°) 13.8mph 9°C 8°C
19/02/20 12:50 EGFF 191250Z AUTO 25011KT 9999 -RA SCT019/// SCT036/// BKN046/// //////TCU 09/08 Q1019 -RA WSW (250°) 12.7mph 9°C 8°C
19/02/20 12:20 EGFF 191220Z AUTO 23010KT 9999 OVC017/// //////TCU 08/07 Q1019 SW (230°) 11.5mph 8°C 7°C
19/02/20 11:50 EGFF 191150Z AUTO 23009KT 9999 -RA BKN021/// OVC032/// //////TCU 08/06 Q1020 -RA SW (230°) 10.4mph 8°C 6°C
19/02/20 11:20 EGFF 191120Z AUTO 21007KT 9999 SCT028 BKN034 OVC043 08/06 Q1020 RERA SSW (210°) 8.1mph 8°C 6°C
19/02/20 10:50 EGFF 191050Z AUTO 20007KT 170V240 9999 -RA BKN016 BKN026 OVC035 07/06 Q1021 -RA SSW (200°) 8.1mph 7°C 6°C
19/02/20 10:20 EGFF 191020Z AUTO 19006KT 9999 -RA OVC015 06/05 Q1021 -RA S (190°) 6.9mph 6°C 5°C
19/02/20 09:20 EGFF 190920Z 26008KT 9000 -RA OVC015 07/05 Q1021 -RA W (260°) 9.2mph 7°C 5°C
19/02/20 08:50 EGFF 190850Z AUTO 26010KT 5000 -RA BKN014 BKN023 OVC041 07/05 Q1021 -RA W (260°) 11.5mph 7°C 5°C
19/02/20 07:50 EGFF 190750Z AUTO 27008KT 9999 -RA FEW024 SCT032 BKN042 07/04 Q1021 -RA W (270°) 9.2mph 7°C 4°C
19/02/20 07:20 EGFF 190720Z AUTO 27011KT 9999 FEW024 SCT040 07/04 Q1021 W (270°) 12.7mph 7°C 4°C
19/02/20 06:50 EGFF 190650Z AUTO 27009KT 9999 BKN024 BKN031 06/03 Q1021 W (270°) 10.4mph 6°C 3°C
19/02/20 06:20 EGFF 190620Z AUTO 28010KT 9999 BKN026 BKN032 06/03 Q1021 W (280°) 11.5mph 6°C 3°C
19/02/20 05:20 EGFF 190520Z AUTO 29008KT 9999 BKN023 06/03 Q1021 WNW (290°) 9.2mph 6°C 3°C
19/02/20 04:50 EGFF 190450Z AUTO 29010KT 9999 FEW024 06/02 Q1021 WNW (290°) 11.5mph 6°C 2°C
19/02/20 04:20 EGFF 190420Z AUTO 29013KT 9999 BKN025 BKN031 06/02 Q1021 WNW (290°) 15.0mph 6°C 2°C
19/02/20 03:20 EGFF 190320Z AUTO 30010KT 9999 SCT025 05/02 Q1020 WNW (300°) 11.5mph 5°C 2°C